M I D A S
Marine Information and Data Acquisition System
Tripno 1830 of the Zeeleeuw from 2009-12-09 07:18:40 to 2009-12-09 15:15:33
Back to CruiseResearch ActivitiesStationsMapUnderway DataData graphs

EquipmentUnitsComments
TimeDGPSUTC
LatitudeDGPSDM.mWGS84
LongitudeDGPSDM.mWGS84
SpeedMeteo Stationm/sRelative wind speed
DirectionMeteo StationdegRelative wind direction
TemperatureMeteo Stationdeg CelciusAir temperature
PressureMeteo StationPaAtmospheric pressure
HumidityMeteo Station%Relative humidity
Missing or incorrect values are displayed as -999
Metereological data collected by the RV Zeeleeuw from 2009-12-09 07:27:41 to 2009-12-09 17:35:34
Time Latitude Longitude Speed Direction Temperature Pressure Humidity
2009-12-09 07:28 51°13.677 2°55.898 3.9 32 8.7 101850 44
2009-12-09 07:29 51°13.7 2°55.81 3.4 18 8.7 101840 45
2009-12-09 07:30 51°13.734 2°55.729 4.2 23 8.7 101850 49
2009-12-09 07:31 51°13.781 2°55.669 1.4 12 8.8 101850 49
2009-12-09 07:32 51°13.845 2°55.631 0.1 359 8.8 101850 46
2009-12-09 07:33 51°13.91 2°55.635 0.1 308 8.8 101850 46
2009-12-09 07:34 51°13.936 2°55.649 4.3 303 8.8 101860 50
2009-12-09 07:35 51°13.953 2°55.59 4.4 309 8.8 101860 49
2009-12-09 07:36 51°14.021 2°55.488 2.3 311 8.8 101860 45
2009-12-09 07:37 51°14.13 2°55.397 1.6 309 8.9 101860 44
2009-12-09 07:38 51°14.25 2°55.265 3.4 310 8.9 101850 49
2009-12-09 07:39 51°14.362 2°55.052 2.9 310 8.9 101850 47
2009-12-09 07:40 51°14.52 2°54.886 3.7 308 8.9 101860 48
2009-12-09 07:41 51°14.69 2°54.752 3.5 309 8.9 101860 44
2009-12-09 07:42 51°14.854 2°54.6 3.3 303 8.9 101850 50
2009-12-09 07:43 51°15.016 2°54.45 4.8 302 9 101850 45
2009-12-09 07:44 51°15.182 2°54.289 5.9 304 9 101850 44
2009-12-09 07:45 51°15.346 2°54.132 5.4 308 9 101850 49
2009-12-09 07:46 51°15.512 2°53.984 5.5 279 9.1 101860 45
2009-12-09 07:47 51°15.683 2°53.832 4.8 282 9.1 101850 44
2009-12-09 07:48 51°15.854 2°53.684 3.9 282 9.1 101860 48
2009-12-09 07:49 51°16.023 2°53.537 5.9 279 9.2 101850 48
2009-12-09 07:50 51°16.191 2°53.387 5.3 307 9.2 101850 45
2009-12-09 07:51 51°16.361 2°53.243 5.7 258 9.2 101850 50
2009-12-09 07:52 51°16.532 2°53.099 4.4 310 9.2 101860 49
2009-12-09 07:53 51°16.703 2°52.958 4.5 257 9.2 101850 44
2009-12-09 07:54 51°16.873 2°52.812 4.1 310 9.2 101850 44
2009-12-09 07:55 51°17.044 2°52.665 2.8 262 9.2 101860 44
2009-12-09 07:56 51°17.214 2°52.516 4.3 260 9.2 101860 46
2009-12-09 07:57 51°17.385 2°52.366 5 258 9.2 101860 49
2009-12-09 07:58 51°17.556 2°52.215 3.2 261 9.2 101860 48
2009-12-09 07:59 51°17.727 2°52.063 5.1 259 9.2 101860 45
2009-12-09 08:00 51°17.897 2°51.912 5.8 262 9.2 101860 48
2009-12-09 08:01 51°18.068 2°51.762 6.1 255 9.3 101860 50
2009-12-09 08:02 51°18.238 2°51.614 5.9 258 9.2 101860 45
2009-12-09 08:03 51°18.41 2°51.464 6.2 258 9.2 101860 49
2009-12-09 08:04 51°18.579 2°51.314 4.3 262 9.2 101850 47
2009-12-09 08:05 51°18.75 2°51.161 5.1 258 9.2 101850 49
2009-12-09 08:06 51°18.921 2°51.009 2.9 263 9.3 101850 45
2009-12-09 08:07 51°19.091 2°50.856 3.9 259 9.3 101860 44
2009-12-09 08:08 51°19.261 2°50.704 4.4 263 9.3 101860 47
2009-12-09 08:09 51°19.431 2°50.551 3.9 261 9.3 101850 47
2009-12-09 08:10 51°19.599 2°50.396 4.8 257 9.3 101870 45
2009-12-09 08:11 51°19.767 2°50.239 3.4 265 9.3 101860 45
2009-12-09 08:12 51°19.937 2°50.085 5.6 306 9.4 101860 48
2009-12-09 08:13 51°20.108 2°49.937 4.5 261 9.4 101860 48
2009-12-09 08:14 51°20.28 2°49.789 4 262 9.4 101860 44
2009-12-09 08:15 51°20.445 2°49.626 5.2 259 9.4 101860 50
2009-12-09 08:16 51°20.602 2°49.448 6.3 260 9.4 101860 47
2009-12-09 08:17 51°20.758 2°49.269 6.2 256 9.4 101860 45
2009-12-09 08:18 51°20.913 2°49.09 7.3 257 9.5 101860 45
2009-12-09 08:19 51°21.066 2°48.907 5.8 283 9.6 101860 45
2009-12-09 08:20 51°21.222 2°48.73 7.9 259 9.6 101860 50
2009-12-09 08:21 51°21.377 2°48.55 8.5 285 9.6 101860 50
2009-12-09 08:22 51°21.531 2°48.369 4.2 263 9.6 101860 49
2009-12-09 08:23 51°21.685 2°48.189 6.5 258 9.6 101870 46
2009-12-09 08:24 51°21.84 2°48.01 6.1 258 9.6 101870 50
2009-12-09 08:25 51°21.995 2°47.83 6.8 258 9.7 101860 46
2009-12-09 08:26 51°22.15 2°47.651 5.9 253 9.6 101870 49
2009-12-09 08:27 51°22.306 2°47.474 5.1 262 9.7 101860 46
2009-12-09 08:28 51°22.463 2°47.294 5.4 252 9.7 101860 46
2009-12-09 08:29 51°22.62 2°47.114 5.7 251 9.7 101870 46
2009-12-09 08:30 51°22.776 2°46.931 4.8 258 9.8 101870 49
2009-12-09 08:31 51°22.923 2°46.732 6.6 258 9.8 101860 49
2009-12-09 08:32 51°23.069 2°46.532 7.7 255 9.8 101860 46
2009-12-09 08:33 51°23.212 2°46.33 6.9 257 9.9 101860 47
2009-12-09 08:34 51°23.356 2°46.129 6.2 255 9.9 101860 46
2009-12-09 08:35 51°23.502 2°45.929 6.8 254 10 101860 46
2009-12-09 08:36 51°23.649 2°45.728 7.8 254 10 101870 45
2009-12-09 08:37 51°23.794 2°45.528 7.2 256 10 101860 47
2009-12-09 08:38 51°23.935 2°45.335 5.1 262 10 101870 50
2009-12-09 08:39 51°24.028 2°45.302 7 33 10.1 101880 48
2009-12-09 08:40 51°24.076 2°45.369 8.8 25 10.2 101880 48
2009-12-09 08:41 51°24.092 2°45.461 8.2 9 10.1 101870 49
2009-12-09 08:42 51°24.086 2°45.571 7.2 6 10.2 101860 49
2009-12-09 08:43 51°24.092 2°45.672 11 16 10.2 101870 46
2009-12-09 08:44 51°24.101 2°45.768 8.9 17 10.1 101880 46
2009-12-09 08:45 51°24.11 2°45.863 8.8 15 10.1 101880 49
2009-12-09 08:46 51°24.12 2°45.956 4.4 13 10.1 101880 47
2009-12-09 08:47 51°24.137 2°46.054 8.3 22 10 101880 48
2009-12-09 08:48 51°24.166 2°46.15 5.6 27 10 101890 49
2009-12-09 08:49 51°24.211 2°46.236 6.9 40 10.1 101900 50
2009-12-09 08:50 51°24.264 2°46.314 6.6 42 10 101890 45
2009-12-09 08:51 51°24.32 2°46.388 6.2 37 10 101890 46
2009-12-09 08:52 51°24.377 2°46.458 6.9 38 10 101890 50
2009-12-09 08:53 51°24.428 2°46.526 6.5 36 10 101890 46
2009-12-09 08:54 51°24.48 2°46.592 7 38 10.1 101890 45
2009-12-09 08:55 51°24.533 2°46.654 6.5 39 10 101890 49
2009-12-09 08:56 51°24.585 2°46.716 7.4 39 10 101890 45
2009-12-09 08:57 51°24.638 2°46.777 7.1 38 10 101880 47
2009-12-09 08:58 51°24.69 2°46.837 6.1 37 10 101900 49
2009-12-09 08:59 51°24.739 2°46.902 8 34 10 101890 46
2009-12-09 09:00 51°24.785 2°46.97 7 36 10 101880 49
2009-12-09 09:01 51°24.831 2°47.039 6.8 38 10 101890 46
2009-12-09 09:02 51°24.877 2°47.108 7.5 33 10 101890 50
2009-12-09 09:03 51°24.919 2°47.181 8.4 31 10.1 101900 46
2009-12-09 09:04 51°24.96 2°47.255 8.8 32 10.1 101890 50
2009-12-09 09:05 51°24.999 2°47.332 7.1 31 10.1 101900 48
2009-12-09 09:06 51°25.038 2°47.407 8 34 10.1 101900 47
2009-12-09 09:07 51°25.077 2°47.483 7.9 29 10.2 101900 47
2009-12-09 09:08 51°25.115 2°47.558 6.9 31 10.2 101900 50
2009-12-09 09:09 51°25.155 2°47.632 7.2 28 10.2 101890 50
2009-12-09 09:10 51°25.195 2°47.706 7.7 28 10.1 101900 46
2009-12-09 09:11 51°25.226 2°47.785 8.3 25 10.1 101900 50
2009-12-09 09:12 51°25.253 2°47.872 8.2 24 10.1 101900 45
2009-12-09 09:13 51°25.28 2°47.965 8.6 21 10.1 101900 50
2009-12-09 09:14 51°25.308 2°48.059 9.4 20 10.1 101900 49
2009-12-09 09:15 51°25.336 2°48.153 8.7 23 10.1 101890 48
2009-12-09 09:16 51°25.364 2°48.248 7.7 24 10.1 101900 47
2009-12-09 09:17 51°25.395 2°48.343 8.5 18 10.1 101900 50
2009-12-09 09:18 51°25.415 2°48.438 8.2 14 10.1 101890 47
2009-12-09 09:19 51°25.427 2°48.531 9.3 12 10.1 101890 47
2009-12-09 09:20 51°25.43 2°48.62 8.6 6 10.1 101890 47
2009-12-09 09:21 51°25.424 2°48.701 8.5 4 10 101890 46
2009-12-09 09:22 51°25.41 2°48.777 9.6 -999 10 101890 46
2009-12-09 09:23 51°25.395 2°48.85 8.8 358 10 101890 46
2009-12-09 09:24 51°25.379 2°48.901 8.6 354 10 101890 47
2009-12-09 09:25 51°25.379 2°48.933 9.6 354 10.1 101900 49
2009-12-09 09:26 51°25.388 2°48.956 8.5 2 10 101890 45
2009-12-09 09:27 51°25.402 2°48.975 6.5 9 10 101910 46
2009-12-09 09:28 51°25.393 2°49.011 8.4 338 10 101910 49
2009-12-09 09:29 51°25.341 2°48.959 8.8 279 10 101910 46
2009-12-09 09:30 51°25.231 2°48.835 12.2 305 10.1 101890 48
2009-12-09 09:31 51°25.093 2°48.725 13.1 283 10.1 101890 49
2009-12-09 09:32 51°24.968 2°48.602 11 301 10.1 101890 47
2009-12-09 09:33 51°24.929 2°48.493 11.3 278 10.1 101900 47
2009-12-09 09:34 51°24.938 2°48.433 8.7 308 10.1 101920 48
2009-12-09 09:35 51°24.958 2°48.414 5.6 284 10.1 101930 47
2009-12-09 09:36 51°24.977 2°48.402 7.6 309 10.1 101930 49
2009-12-09 09:37 51°24.994 2°48.396 8.3 283 10.2 101920 47
2009-12-09 09:38 51°25.011 2°48.392 8.8 309 10.1 101930 49
2009-12-09 09:39 51°25.03 2°48.39 7.4 278 10 101920 49
2009-12-09 09:40 51°25.05 2°48.392 5.4 304 10 101930 46
2009-12-09 09:41 51°25.068 2°48.393 6 283 10 101930 48
2009-12-09 09:42 51°25.086 2°48.396 6.7 309 9.9 101920 46
2009-12-09 09:43 51°25.104 2°48.399 8.1 285 9.9 101930 45
2009-12-09 09:44 51°25.122 2°48.401 7.4 302 9.9 101930 45
2009-12-09 09:45 51°25.141 2°48.402 6.8 286 9.9 101940 46
2009-12-09 09:46 51°25.16 2°48.404 6.7 305 9.9 101930 48
2009-12-09 09:47 51°25.206 2°48.354 5.6 58 9.9 101940 48
2009-12-09 09:48 51°25.325 2°48.261 4.6 80 10 101940 45
2009-12-09 09:49 51°25.494 2°48.128 4 306 9.9 101940 44
2009-12-09 09:50 51°25.668 2°47.987 4.6 84 9.9 101940 45
2009-12-09 09:51 51°25.85 2°47.868 4.4 58 9.9 101940 44
2009-12-09 09:52 51°26.037 2°47.769 5.4 76 9.9 101940 44
2009-12-09 09:53 51°26.223 2°47.669 4 51 9.9 101940 44
2009-12-09 09:54 51°26.409 2°47.568 3.4 76 10 101940 44
2009-12-09 09:55 51°26.596 2°47.472 2.5 311 10 101930 45
2009-12-09 09:56 51°26.785 2°47.392 3.7 80 10 101940 49
2009-12-09 09:57 51°26.975 2°47.313 3.2 50 10 101940 49
2009-12-09 09:58 51°27.163 2°47.232 4.4 76 10 101930 48
2009-12-09 09:59 51°27.35 2°47.148 2.8 309 10 101940 53
2009-12-09 10:00 51°27.538 2°47.066 2.9 76 10 101930 46
2009-12-09 10:01 51°27.727 2°46.986 3.9 54 10 101930 45
2009-12-09 10:02 51°27.915 2°46.903 3.9 79 10.1 101930 45
2009-12-09 10:03 51°28.103 2°46.821 3.3 58 10.1 101930 50
2009-12-09 10:04 51°28.291 2°46.739 3.3 80 10.1 101940 50
2009-12-09 10:05 51°28.479 2°46.656 3.6 51 10.1 101930 45
2009-12-09 10:06 51°28.667 2°46.575 3.7 81 10.1 101930 49
2009-12-09 10:07 51°28.855 2°46.492 4.8 61 10.2 101930 46
2009-12-09 10:08 51°29.043 2°46.407 4.3 83 10.2 101940 49
2009-12-09 10:09 51°29.23 2°46.323 4.8 52 10.2 101940 54
2009-12-09 10:10 51°29.418 2°46.239 4.9 76 10.2 101940 48
2009-12-09 10:11 51°29.605 2°46.154 4.8 59 10.2 101930 46
2009-12-09 10:12 51°29.793 2°46.072 2.2 284 10.2 101940 49
2009-12-09 10:13 51°29.98 2°45.986 3.5 57 10.3 101940 49
2009-12-09 10:14 51°30.168 2°45.903 4 81 10.3 101940 50
2009-12-09 10:15 51°30.355 2°45.818 6 312 10.3 101940 50
2009-12-09 10:16 51°30.543 2°45.731 5.9 284 10.3 101940 49
2009-12-09 10:17 51°30.731 2°45.648 3.8 314 10.3 101940 46
2009-12-09 10:18 51°30.918 2°45.565 4.1 86 10.3 101940 50
2009-12-09 10:19 51°31.106 2°45.482 3.8 288 10.3 101940 45
2009-12-09 10:20 51°31.293 2°45.398 3.6 303 10.3 101950 49
2009-12-09 10:21 51°31.482 2°45.312 3.3 283 10.3 101950 45
2009-12-09 10:22 51°31.669 2°45.224 3.4 284 10.3 101950 48
2009-12-09 10:23 51°31.856 2°45.141 5.6 56 10.4 101950 45
2009-12-09 10:24 51°32.043 2°45.055 5.7 280 10.4 101950 44
2009-12-09 10:25 51°32.229 2°44.967 2.6 308 10.5 101940 45
2009-12-09 10:26 51°32.415 2°44.879 5 284 10.6 101950 50
2009-12-09 10:27 51°32.603 2°44.795 4.4 53 10.6 101950 49
2009-12-09 10:28 51°32.79 2°44.709 5.1 281 10.6 101950 46
2009-12-09 10:29 51°32.975 2°44.62 4.5 302 10.6 101950 50
2009-12-09 10:30 51°33.165 2°44.544 5.6 279 10.6 101950 50
2009-12-09 10:31 51°33.353 2°44.471 4.6 309 10.6 101950 45
2009-12-09 10:32 51°33.545 2°44.402 5.2 74 10.6 101950 47
2009-12-09 10:33 51°33.735 2°44.329 4.2 81 10.6 101950 44
2009-12-09 10:34 51°33.926 2°44.262 4.8 312 10.6 101950 45
2009-12-09 10:35 51°34.116 2°44.192 4.3 76 10.6 101950 44
2009-12-09 10:36 51°34.307 2°44.124 3.8 51 10.6 101940 50
2009-12-09 10:37 51°34.496 2°44.057 2.5 286 10.6 101940 49
2009-12-09 10:38 51°34.687 2°43.989 3.3 55 10.6 101930 45
2009-12-09 10:39 51°34.878 2°43.924 4.6 75 10.6 101940 46
2009-12-09 10:40 51°35.07 2°43.857 4.1 56 10.6 101930 49
2009-12-09 10:41 51°35.261 2°43.788 4.3 85 10.6 101940 45
2009-12-09 10:42 51°35.45 2°43.721 4.4 55 10.6 101930 41
2009-12-09 10:43 51°35.64 2°43.652 3 76 10.6 101930 51
2009-12-09 10:44 51°35.829 2°43.583 4.9 51 10.7 101930 50
2009-12-09 10:45 51°36.018 2°43.52 4.7 80 10.6 101930 50
2009-12-09 10:46 51°36.205 2°43.449 4.5 285 10.6 101930 51
2009-12-09 10:47 51°36.395 2°43.385 4.6 57 10.6 101930 50
2009-12-09 10:48 51°36.584 2°43.32 4.8 79 10.6 101930 49
2009-12-09 10:49 51°36.774 2°43.253 1.8 52 10.6 101930 44
2009-12-09 10:50 51°36.965 2°43.201 4.4 82 10.7 101930 46
2009-12-09 10:51 51°37.155 2°43.202 1.1 57 10.6 101930 47
2009-12-09 10:52 51°37.352 2°43.213 1.2 74 10.6 101930 44
2009-12-09 10:53 51°37.542 2°43.219 1.5 56 10.7 101930 47
2009-12-09 10:54 51°37.737 2°43.229 2.2 75 10.7 101930 46
2009-12-09 10:55 51°37.928 2°43.234 2.8 55 10.7 101940 51
2009-12-09 10:56 51°38.119 2°43.241 2.8 80 10.7 101940 44
2009-12-09 10:57 51°38.312 2°43.25 2.4 57 10.8 101940 43
2009-12-09 10:58 51°38.502 2°43.258 4.4 76 10.8 101940 46
2009-12-09 10:59 51°38.695 2°43.264 3.7 54 10.8 101940 46
2009-12-09 11:00 51°38.885 2°43.269 4.2 82 10.8 101940 49
2009-12-09 11:01 51°39.08 2°43.27 1.9 50 10.8 101930 46
2009-12-09 11:02 51°39.268 2°43.257 4.1 76 10.8 101930 50
2009-12-09 11:03 51°39.46 2°43.234 3.5 58 10.9 101930 45
2009-12-09 11:04 51°39.649 2°43.214 4.1 75 10.9 101930 46
2009-12-09 11:05 51°39.839 2°43.195 3.1 14 10.9 101920 45
2009-12-09 11:06 51°40.03 2°43.172 3.9 80 10.9 101920 48
2009-12-09 11:07 51°40.217 2°43.154 3.7 59 10.9 101930 51
2009-12-09 11:08 51°40.409 2°43.125 3.6 75 10.9 101920 47
2009-12-09 11:09 51°40.593 2°43.079 3.2 50 10.9 101930 48
2009-12-09 11:10 51°40.784 2°43.033 3.2 77 10.9 101920 46
2009-12-09 11:11 51°40.969 2°42.994 3.7 305 10.9 101920 46
2009-12-09 11:12 51°41.157 2°42.948 3.9 279 11 101920 51
2009-12-09 11:13 51°41.343 2°42.905 2.9 75 11 101930 45
2009-12-09 11:14 51°41.529 2°42.857 3.7 302 11 101920 48
2009-12-09 11:15 51°41.714 2°42.812 3.9 74 11 101920 45
2009-12-09 11:16 51°41.898 2°42.767 3.3 58 11 101930 49
2009-12-09 11:17 51°42.086 2°42.719 3.6 76 11 101930 49
2009-12-09 11:18 51°42.27 2°42.676 0.7 56 11 101930 46
2009-12-09 11:19 51°42.459 2°42.632 3.1 79 11 101930 50
2009-12-09 11:20 51°42.643 2°42.595 2.6 53 11.1 101930 49
2009-12-09 11:21 51°42.832 2°42.557 3.4 76 11.1 101930 46
2009-12-09 11:22 51°43.019 2°42.519 3 309 11.1 101930 48
2009-12-09 11:23 51°43.204 2°42.482 3.9 75 11.1 101930 51
2009-12-09 11:24 51°43.389 2°42.437 1.9 309 11.1 101930 46
2009-12-09 11:25 51°43.57 2°42.396 4.6 86 11.1 101920 51
2009-12-09 11:26 51°43.757 2°42.353 3.3 61 11.1 101930 46
2009-12-09 11:27 51°43.938 2°42.315 3.9 283 11.1 101930 49
2009-12-09 11:28 51°44.125 2°42.275 2.1 309 11.2 101930 48
2009-12-09 11:29 51°44.306 2°42.24 1.4 284 11.2 101930 47
2009-12-09 11:30 51°44.493 2°42.198 3.3 302 11.2 101930 46
2009-12-09 11:31 51°44.676 2°42.156 3.3 284 11.2 101930 47
2009-12-09 11:32 51°44.86 2°42.116 2.8 308 11.2 101930 46
2009-12-09 11:33 51°44.981 2°42.073 5.5 285 11.2 101930 46
2009-12-09 11:34 51°45.018 2°42.015 7.1 304 11.2 101910 46
2009-12-09 11:35 51°45.03 2°42.001 8.4 282 11.2 101920 49
2009-12-09 11:36 51°45.038 2°42.001 4.5 303 11.3 101920 48
2009-12-09 11:37 51°45.045 2°42.006 5.2 82 11.3 101920 46
2009-12-09 11:38 51°45.051 2°42.01 6.9 55 11.3 101920 46
2009-12-09 11:39 51°45.057 2°42.013 6.8 284 11.3 101930 51
2009-12-09 11:40 51°45.064 2°42.014 7.2 308 11.3 101930 50
2009-12-09 11:41 51°45.072 2°42.013 5.4 278 11.3 101920 48
2009-12-09 11:42 51°45.08 2°42.012 7.5 303 11.3 101920 49
2009-12-09 11:43 51°45.092 2°42.002 6.2 286 11.3 101930 46
2009-12-09 11:44 51°45.145 2°41.993 6.1 57 11.3 101930 46
2009-12-09 11:45 51°45.169 2°42.039 5.6 30 11.3 101940 45
2009-12-09 11:46 51°45.17 2°42.117 5.8 25 11.4 101930 48
2009-12-09 11:47 51°45.163 2°42.211 8.7 11 11.4 101940 50
2009-12-09 11:48 51°45.124 2°42.318 8.4 4 11.4 101930 49
2009-12-09 11:49 51°45.081 2°42.384 6.3 358 11.4 101930 49
2009-12-09 11:50 51°45.033 2°42.438 8 357 11.4 101920 47
2009-12-09 11:51 51°44.982 2°42.493 8 358 11.4 101920 46
2009-12-09 11:52 51°44.932 2°42.557 6.7 358 11.4 101920 49
2009-12-09 11:53 51°44.887 2°42.627 7.9 1 11.4 101920 49
2009-12-09 11:54 51°44.845 2°42.695 9.1 1 11.3 101920 50
2009-12-09 11:55 51°44.798 2°42.756 10.5 355 11.3 101920 50
2009-12-09 11:56 51°44.749 2°42.804 9.3 352 11.3 101930 46
2009-12-09 11:57 51°44.691 2°42.828 9.4 343 11.3 101930 47
2009-12-09 11:58 51°44.631 2°42.832 9.2 343 11.3 101950 50
2009-12-09 11:59 51°44.568 2°42.829 9 337 11.3 101940 49
2009-12-09 12:00 51°44.506 2°42.816 9.6 338 11.3 101950 46
2009-12-09 12:01 51°44.443 2°42.803 10.3 280 11.3 101950 50
2009-12-09 12:02 51°44.382 2°42.804 9.1 339 11.3 101930 49
2009-12-09 12:03 51°44.322 2°42.8 9.8 285 11.2 101930 48
2009-12-09 12:04 51°44.261 2°42.782 8.8 334 11.2 101950 49
2009-12-09 12:05 51°44.204 2°42.75 8.9 283 11.2 101940 50
2009-12-09 12:06 51°44.152 2°42.695 10.1 323 11.2 101950 47
2009-12-09 12:07 51°44.112 2°42.622 10.1 278 11.2 101930 47
2009-12-09 12:08 51°44.071 2°42.541 9.7 304 11.3 101930 47
2009-12-09 12:09 51°44.031 2°42.462 8.7 285 11.3 101930 48
2009-12-09 12:10 51°43.989 2°42.38 7.8 306 11.3 101930 48
2009-12-09 12:11 51°43.946 2°42.297 9.9 317 11.3 101930 47
2009-12-09 12:12 51°43.904 2°42.213 9 309 11.4 101930 48
2009-12-09 12:13 51°43.86 2°42.131 9.4 321 11.3 101930 48
2009-12-09 12:14 51°43.817 2°42.047 9.4 306 11.4 101930 48
2009-12-09 12:15 51°43.773 2°41.967 8.3 319 11.4 101930 47
2009-12-09 12:16 51°43.729 2°41.887 7.7 307 11.4 101930 49
2009-12-09 12:17 51°43.682 2°41.813 9.4 284 11.4 101940 49
2009-12-09 12:18 51°43.623 2°41.773 9.5 337 11.4 101940 46
2009-12-09 12:19 51°43.557 2°41.762 9.5 346 11.4 101940 47
2009-12-09 12:20 51°43.493 2°41.785 9.9 351 11.4 101930 49
2009-12-09 12:21 51°43.436 2°41.828 9.9 359 11.4 101930 47
2009-12-09 12:22 51°43.387 2°41.889 6.5 7 11.4 101930 50
2009-12-09 12:23 51°43.347 2°41.963 8 9 11.4 101940 50
2009-12-09 12:24 51°43.324 2°42.051 7.7 15 11.4 101940 46
2009-12-09 12:25 51°43.303 2°42.138 7.1 16 11.4 101930 49
2009-12-09 12:26 51°43.282 2°42.225 6.9 19 11.4 101930 46
2009-12-09 12:27 51°43.262 2°42.312 7.6 15 11.4 101930 47
2009-12-09 12:28 51°43.227 2°42.385 7.1 4 11.4 101940 47
2009-12-09 12:29 51°43.183 2°42.451 7.4 4 11.4 101930 49
2009-12-09 12:30 51°43.139 2°42.512 7.3 4 11.3 101930 51
2009-12-09 12:31 51°43.092 2°42.57 10 359 11.3 101930 49
2009-12-09 12:32 51°43.042 2°42.623 8.6 358 11.3 101940 46
2009-12-09 12:33 51°42.991 2°42.667 8.2 355 11.3 101920 47
2009-12-09 12:34 51°42.953 2°42.69 8 356 11.3 101910 47
2009-12-09 12:35 51°42.91 2°42.71 9.8 349 11.3 101930 47
2009-12-09 12:36 51°42.82 2°42.76 10 353 11.3 101890 50
2009-12-09 12:37 51°42.766 2°42.787 8.5 350 11.3 101900 46
2009-12-09 12:38 51°42.736 2°42.798 8.8 354 11.3 101930 50
2009-12-09 12:39 51°42.712 2°42.809 8 348 11.3 101920 49
2009-12-09 12:40 51°42.647 2°42.761 11.8 279 11.3 101930 48
2009-12-09 12:41 51°42.535 2°42.592 11.3 305 11.3 101910 49
2009-12-09 12:42 51°42.393 2°42.377 12.5 277 11.3 101900 49
2009-12-09 12:43 51°42.245 2°42.156 12.3 323 11.4 101910 49
2009-12-09 12:44 51°42.096 2°41.936 13.4 279 11.4 101910 49
2009-12-09 12:45 51°41.947 2°41.715 13.3 325 11.4 101900 48
2009-12-09 12:46 51°41.798 2°41.492 13.1 279 11.4 101890 48
2009-12-09 12:47 51°41.648 2°41.271 13.1 324 11.4 101910 49
2009-12-09 12:48 51°41.5 2°41.053 14.5 279 11.4 101910 48
2009-12-09 12:49 51°41.348 2°40.824 13.8 278 11.4 101900 48
2009-12-09 12:50 51°41.201 2°40.606 14.9 303 11.4 101910 48
2009-12-09 12:51 51°41.049 2°40.378 12.1 284 11.4 101910 49
2009-12-09 12:52 51°40.9 2°40.159 14.1 303 11.4 101910 47
2009-12-09 12:53 51°40.746 2°39.934 14.9 281 11.4 101900 49
2009-12-09 12:54 51°40.596 2°39.709 13.9 304 11.4 101910 48
2009-12-09 12:55 51°40.444 2°39.485 12.8 281 11.4 101910 49
2009-12-09 12:56 51°40.291 2°39.263 12.8 306 11.4 101910 47
2009-12-09 12:57 51°40.14 2°39.037 14 280 11.4 101900 48
2009-12-09 12:58 51°39.988 2°38.813 14.3 304 11.4 101890 49
2009-12-09 12:59 51°39.839 2°38.592 14.1 278 11.5 101900 48
2009-12-09 13:00 51°39.684 2°38.364 13.5 307 11.5 101900 49
2009-12-09 13:01 51°39.535 2°38.142 14 284 11.5 101900 48
2009-12-09 13:02 51°39.38 2°37.914 12.9 302 11.5 101900 48
2009-12-09 13:03 51°39.23 2°37.693 13.9 285 11.5 101900 49
2009-12-09 13:04 51°39.075 2°37.468 13.2 303 11.5 101890 47
2009-12-09 13:05 51°38.922 2°37.243 14.2 286 11.5 101890 48
2009-12-09 13:06 51°38.77 2°37.017 13.2 305 11.4 101900 49
2009-12-09 13:07 51°38.617 2°36.793 14.5 286 11.5 101900 48
2009-12-09 13:08 51°38.466 2°36.57 13 302 11.5 101900 47
2009-12-09 13:09 51°38.31 2°36.341 13.7 278 11.5 101900 47
2009-12-09 13:10 51°38.158 2°36.12 13.2 284 11.5 101900 47
2009-12-09 13:11 51°38.002 2°35.892 14.2 306 11.5 101900 47
2009-12-09 13:12 51°37.851 2°35.669 13.1 285 11.5 101900 49
2009-12-09 13:13 51°37.695 2°35.438 13.2 307 11.5 101900 48
2009-12-09 13:14 51°37.544 2°35.215 13.1 282 11.5 101900 48
2009-12-09 13:15 51°37.388 2°34.981 13.5 322 11.5 101900 49
2009-12-09 13:16 51°37.236 2°34.751 13 282 11.6 101910 48
2009-12-09 13:17 51°37.084 2°34.519 12.7 324 11.6 101900 50
2009-12-09 13:18 51°36.933 2°34.285 13.1 283 11.6 101890 49
2009-12-09 13:19 51°36.784 2°34.043 13 304 11.6 101900 49
2009-12-09 13:20 51°36.635 2°33.811 14.6 276 11.6 101910 49
2009-12-09 13:21 51°36.491 2°33.567 12.9 304 11.6 101900 46
2009-12-09 13:22 51°36.348 2°33.319 13.4 282 11.6 101900 49
2009-12-09 13:23 51°36.209 2°33.08 12.6 304 11.6 101900 47
2009-12-09 13:24 51°36.063 2°32.833 12.5 280 11.6 101910 49
2009-12-09 13:25 51°35.921 2°32.595 13.4 305 11.6 101900 49
2009-12-09 13:26 51°35.775 2°32.35 13.4 279 11.6 101900 49
2009-12-09 13:27 51°35.63 2°32.107 13.3 283 11.6 101900 48
2009-12-09 13:28 51°35.485 2°31.864 12.7 306 11.6 101900 49
2009-12-09 13:29 51°35.338 2°31.621 12.9 281 11.7 101900 47
2009-12-09 13:30 51°35.195 2°31.382 13.5 305 11.7 101900 50
2009-12-09 13:31 51°35.048 2°31.14 13.9 285 11.7 101910 49
2009-12-09 13:32 51°34.892 2°30.911 13.4 324 11.7 101910 47
2009-12-09 13:33 51°34.732 2°30.678 12.1 281 11.7 101910 49
2009-12-09 13:34 51°34.576 2°30.454 11.5 304 11.8 101910 49
2009-12-09 13:35 51°34.414 2°30.222 12.8 283 11.8 101920 49
2009-12-09 13:36 51°34.257 2°29.993 13.8 326 11.8 101910 50
2009-12-09 13:37 51°34.099 2°29.767 14 282 11.8 101920 49
2009-12-09 13:38 51°33.94 2°29.543 12.6 326 11.8 101920 49
2009-12-09 13:39 51°33.784 2°29.312 12.6 280 11.8 101920 49
2009-12-09 13:40 51°33.629 2°29.083 13.6 326 11.9 101920 48
2009-12-09 13:41 51°33.477 2°28.855 11.9 277 11.9 101920 48
2009-12-09 13:42 51°33.321 2°28.626 14.7 301 11.9 101910 49
2009-12-09 13:43 51°33.159 2°28.4 14 286 11.9 101920 50
2009-12-09 13:44 51°32.994 2°28.189 11.1 277 11.9 101920 50
2009-12-09 13:45 51°32.826 2°27.98 12.9 327 11.9 101920 49
2009-12-09 13:46 51°32.66 2°27.77 11.1 278 11.9 101910 48
2009-12-09 13:47 51°32.495 2°27.56 13.9 331 11.9 101920 49
2009-12-09 13:48 51°32.332 2°27.346 14.8 279 11.9 101910 49
2009-12-09 13:49 51°32.169 2°27.134 15.7 328 11.9 101920 49
2009-12-09 13:50 51°32.009 2°26.927 14.9 282 11.9 101910 49
2009-12-09 13:51 51°31.846 2°26.715 13.6 329 11.9 101900 49
2009-12-09 13:52 51°31.681 2°26.504 15.1 283 11.9 101910 48
2009-12-09 13:53 51°31.515 2°26.297 15.3 328 11.9 101910 49
2009-12-09 13:54 51°31.349 2°26.08 14.9 280 11.9 101910 48
2009-12-09 13:55 51°31.185 2°25.863 13.8 328 11.9 101920 49
2009-12-09 13:56 51°31.021 2°25.648 12.7 282 11.9 101910 49
2009-12-09 13:57 51°30.855 2°25.438 13.1 304 12 101920 49
2009-12-09 13:58 51°30.691 2°25.223 13.7 286 11.9 101910 49
2009-12-09 13:59 51°30.526 2°25.01 11.7 327 11.9 101920 48
2009-12-09 14:00 51°30.361 2°24.797 14.6 283 11.9 101920 50
2009-12-09 14:01 51°30.197 2°24.592 12.5 302 11.9 101910 49
2009-12-09 14:02 51°30.032 2°24.381 13.2 278 11.8 101920 48
2009-12-09 14:03 51°29.866 2°24.172 13 327 11.8 101930 47
2009-12-09 14:04 51°29.701 2°23.96 13.2 283 11.8 101920 49
2009-12-09 14:05 51°29.534 2°23.745 11.9 326 11.7 101930 50
2009-12-09 14:06 51°29.372 2°23.539 11.6 302 11.7 101930 50
2009-12-09 14:07 51°29.204 2°23.327 11.7 301 11.7 101930 47
2009-12-09 14:08 51°29.043 2°23.122 12.9 281 11.7 101920 49
2009-12-09 14:09 51°28.877 2°22.909 10.6 327 11.7 101930 49
2009-12-09 14:10 51°28.714 2°22.701 10.4 301 11.7 101930 47
2009-12-09 14:11 51°28.553 2°22.497 11.5 277 11.7 101930 49
2009-12-09 14:12 51°28.386 2°22.291 12 302 11.7 101930 49
2009-12-09 14:13 51°28.224 2°22.094 11.3 287 11.7 101930 47
2009-12-09 14:14 51°28.057 2°21.89 11.9 325 11.7 101930 48
2009-12-09 14:15 51°27.896 2°21.689 11 279 11.7 101930 50
2009-12-09 14:16 51°27.729 2°21.482 10.3 304 11.7 101930 47
2009-12-09 14:17 51°27.565 2°21.285 12 283 11.7 101930 47
2009-12-09 14:18 51°27.425 2°21.108 8.5 306 11.7 101930 47
2009-12-09 14:19 51°27.403 2°21 9.3 287 11.7 101940 46
2009-12-09 14:20 51°27.392 2°20.98 6.9 56 11.6 101960 47
2009-12-09 14:21 51°27.381 2°20.972 6.6 79 11.6 101960 53
2009-12-09 14:22 51°27.374 2°20.964 5.7 52 11.6 101960 46
2009-12-09 14:23 51°27.366 2°20.956 6.7 75 11.6 101960 50
2009-12-09 14:24 51°27.357 2°20.947 3 313 11.6 101960 46
2009-12-09 14:25 51°27.347 2°20.938 4.5 279 11.7 101960 50
2009-12-09 14:26 51°27.336 2°20.932 6.1 309 11.6 101960 53
2009-12-09 14:27 51°27.334 2°20.913 5.7 80 11.6 101960 51
2009-12-09 14:28 51°27.366 2°20.916 5.2 35 11.7 101950 48
2009-12-09 14:29 51°27.386 2°21.031 6.4 15 11.7 101950 53
2009-12-09 14:30 51°27.374 2°21.146 7.6 19 11.7 101950 47
2009-12-09 14:31 51°27.356 2°21.221 7.1 18 11.7 101950 47
2009-12-09 14:32 51°27.341 2°21.288 6.6 16 11.6 101950 52
2009-12-09 14:33 51°27.318 2°21.35 6.7 13 11.6 101950 47
2009-12-09 14:34 51°27.288 2°21.425 7.5 10 11.7 101950 52
2009-12-09 14:35 51°27.254 2°21.507 6.1 7 11.6 101950 52
2009-12-09 14:36 51°27.22 2°21.591 6.6 7 11.6 101950 47
2009-12-09 14:37 51°27.186 2°21.675 7.9 8 11.6 101950 46
2009-12-09 14:38 51°27.154 2°21.76 6.1 7 11.6 101950 47
2009-12-09 14:39 51°27.12 2°21.843 7.4 8 11.6 101950 46
2009-12-09 14:40 51°27.087 2°21.926 5.4 8 11.6 101950 47
2009-12-09 14:41 51°27.054 2°22.009 6.3 7 11.6 101950 47
2009-12-09 14:42 51°27.022 2°22.095 6.9 7 11.6 101950 49
2009-12-09 14:43 51°26.991 2°22.178 6.1 6 11.6 101950 52
2009-12-09 14:44 51°26.961 2°22.262 5.5 7 11.6 101950 49
2009-12-09 14:45 51°26.931 2°22.347 6 3 11.6 101950 47
2009-12-09 14:46 51°26.888 2°22.421 7.3 354 11.6 101950 50
2009-12-09 14:47 51°26.833 2°22.477 7.2 351 11.5 101950 52
2009-12-09 14:48 51°26.773 2°22.523 8.1 348 11.6 101950 51
2009-12-09 14:49 51°26.708 2°22.55 7.6 338 11.6 101960 52
2009-12-09 14:50 51°26.64 2°22.547 7 332 11.6 101960 47
2009-12-09 14:51 51°26.572 2°22.516 8.2 325 11.6 101960 47
2009-12-09 14:52 51°26.514 2°22.454 6.9 315 11.6 101950 51
2009-12-09 14:53 51°26.472 2°22.364 7.9 24 11.6 101950 49
2009-12-09 14:54 51°26.44 2°22.265 7.8 22 11.5 101950 51
2009-12-09 14:55 51°26.409 2°22.166 8.8 20 11.5 101950 47
2009-12-09 14:56 51°26.379 2°22.065 8.3 25 11.6 101960 49
2009-12-09 14:57 51°26.342 2°21.976 7.3 25 11.6 101960 48
2009-12-09 14:58 51°26.298 2°21.894 8.2 317 11.6 101950 47
2009-12-09 14:59 51°26.248 2°21.824 7.9 317 11.6 101950 49
2009-12-09 15:00 51°26.203 2°21.755 7.9 315 11.6 101950 52
2009-12-09 15:01 51°26.161 2°21.685 7.8 21 11.6 101950 51
2009-12-09 15:02 51°26.118 2°21.616 8.6 317 11.6 101950 50
2009-12-09 15:03 51°26.075 2°21.55 6.6 21 11.6 101950 47
2009-12-09 15:04 51°26.031 2°21.483 8.5 316 11.6 101960 48
2009-12-09 15:05 51°25.989 2°21.415 8.3 315 11.5 101950 48
2009-12-09 15:06 51°25.947 2°21.349 9 24 11.5 101950 47
2009-12-09 15:07 51°25.907 2°21.28 7.8 22 11.5 101960 46
2009-12-09 15:08 51°25.896 2°21.195 5.9 251 11.5 101950 50
2009-12-09 15:09 51°25.904 2°21.105 6.9 256 11.6 101950 50
2009-12-09 15:10 51°25.929 2°21.025 5.3 270 11.6 101970 49
2009-12-09 15:11 51°25.975 2°20.99 3 20 11.5 101960 47
2009-12-09 15:12 51°26.018 2°21.015 5.5 38 11.6 101980 47
2009-12-09 15:13 51°26.034 2°21.057 4.4 28 11.6 101970 49
2009-12-09 15:14 51°26.039 2°21.084 5.4 30 11.6 101970 46
2009-12-09 15:15 51°26.041 2°21.105 5.5 27 11.6 101980 51
2009-12-09 15:16 51°26.03 2°21.17 5.6 5 11.5 101970 51
2009-12-09 15:17 51°25.991 2°21.371 8.4 358 11.6 101960 47
2009-12-09 15:18 51°25.942 2°21.648 8.6 353 11.6 101960 49
2009-12-09 15:19 51°25.892 2°21.938 8.6 354 11.6 101960 51
2009-12-09 15:20 51°25.88 2°22.242 8.2 -999 11.5 101960 50
2009-12-09 15:21 51°25.874 2°22.548 8.1 357 11.5 101960 51
2009-12-09 15:22 51°25.871 2°22.85 7.8 357 11.5 101960 51
2009-12-09 15:23 51°25.851 2°23.147 6.3 355 11.5 101960 47
2009-12-09 15:24 51°25.802 2°23.437 8.6 354 11.4 101950 49
2009-12-09 15:25 51°25.726 2°23.712 10.1 353 11.4 101950 49
2009-12-09 15:26 51°25.633 2°23.976 7.4 350 11.4 101950 50
2009-12-09 15:27 51°25.538 2°24.24 9 351 11.4 101950 47
2009-12-09 15:28 51°25.45 2°24.506 9.5 350 11.5 101950 50
2009-12-09 15:29 51°25.36 2°24.775 6.3 347 11.4 101960 51
2009-12-09 15:30 51°25.274 2°25.048 9.6 348 11.4 101950 47
2009-12-09 15:31 51°25.165 2°25.299 10.1 349 11.5 101960 48
2009-12-09 15:32 51°25.049 2°25.542 7.9 347 11.4 101960 49
2009-12-09 15:33 51°24.932 2°25.785 9.5 348 11.4 101960 51
2009-12-09 15:34 51°24.814 2°26.027 9.3 348 11.4 101970 47
2009-12-09 15:35 51°24.695 2°26.268 9.2 348 11.4 101970 48
2009-12-09 15:36 51°24.578 2°26.513 8.9 348 11.4 101970 47
2009-12-09 15:37 51°24.461 2°26.758 9.5 347 11.4 101970 48
2009-12-09 15:38 51°24.347 2°27.007 8 348 11.3 101980 47
2009-12-09 15:39 51°24.235 2°27.261 8.8 345 11.4 101970 51
2009-12-09 15:40 51°24.12 2°27.521 8.7 342 11.4 101970 50
2009-12-09 15:41 51°24.007 2°27.782 9 344 11.3 101980 47
2009-12-09 15:42 51°23.895 2°28.035 8.8 346 11.3 101980 50
2009-12-09 15:43 51°23.781 2°28.284 8.7 347 11.3 101980 48
2009-12-09 15:44 51°23.667 2°28.533 9.9 346 11.3 101970 49
2009-12-09 15:45 51°23.554 2°28.784 10.2 346 11.3 101990 49
2009-12-09 15:46 51°23.441 2°29.036 10 346 11.3 101970 48
2009-12-09 15:47 51°23.328 2°29.288 9.4 346 11.2 101980 47
2009-12-09 15:48 51°23.215 2°29.539 9.1 344 11.2 101970 50
2009-12-09 15:49 51°23.103 2°29.79 10.2 345 11.2 101970 49
2009-12-09 15:50 51°22.991 2°30.044 10 346 11.2 101970 47
2009-12-09 15:51 51°22.884 2°30.3 10.2 345 11.2 101970 48
2009-12-09 15:52 51°22.774 2°30.553 10.7 347 11.2 101980 47
2009-12-09 15:53 51°22.667 2°30.809 10.2 345 11.2 101970 49
2009-12-09 15:54 51°22.559 2°31.066 10.9 346 11.1 101980 47
2009-12-09 15:55 51°22.449 2°31.323 10.6 346 11.1 101970 49
2009-12-09 15:56 51°22.338 2°31.578 10.7 346 11.1 101970 49
2009-12-09 15:57 51°22.232 2°31.837 10.7 347 11.1 101970 49
2009-12-09 15:58 51°22.122 2°32.095 10.1 345 11.1 101970 48
2009-12-09 15:59 51°22.012 2°32.353 10.7 346 11.1 101970 47
2009-12-09 16:00 51°21.902 2°32.61 10.4 345 11.1 101980 47
2009-12-09 16:01 51°21.789 2°32.867 10.2 345 11.1 101980 47
2009-12-09 16:02 51°21.675 2°33.123 10.8 344 11.1 101970 49
2009-12-09 16:03 51°21.56 2°33.379 10.6 345 11 101970 48
2009-12-09 16:04 51°21.446 2°33.635 11 345 11 101980 50
2009-12-09 16:05 51°21.336 2°33.893 10.2 343 11 101970 48
2009-12-09 16:06 51°21.226 2°34.154 10.5 343 11 101970 50
2009-12-09 16:07 51°21.118 2°34.417 10.4 344 11 101970 48
2009-12-09 16:08 51°21.007 2°34.679 10.1 344 11 101980 50
2009-12-09 16:09 51°20.898 2°34.94 10.4 346 10.9 101980 47
2009-12-09 16:10 51°20.789 2°35.197 11 344 10.9 101980 50
2009-12-09 16:11 51°20.68 2°35.455 10 345 10.9 101980 48
2009-12-09 16:12 51°20.572 2°35.716 10.9 346 10.9 101980 47
2009-12-09 16:13 51°20.463 2°35.981 11.2 346 10.9 101980 47
2009-12-09 16:14 51°20.355 2°36.249 10.3 344 10.9 101980 48
2009-12-09 16:15 51°20.246 2°36.515 10.6 346 10.9 101990 49
2009-12-09 16:16 51°20.14 2°36.785 10.1 346 10.9 101980 50
2009-12-09 16:17 51°20.04 2°37.062 10.4 344 10.8 101980 47
2009-12-09 16:18 51°19.944 2°37.343 9.9 344 10.8 101980 49
2009-12-09 16:19 51°19.847 2°37.623 11 345 10.8 101990 50
2009-12-09 16:20 51°19.749 2°37.901 10.6 343 10.8 101990 49
2009-12-09 16:21 51°19.651 2°38.18 10.7 345 10.8 101990 47
2009-12-09 16:22 51°19.553 2°38.457 11.6 347 10.8 101990 49
2009-12-09 16:23 51°19.455 2°38.735 10.4 345 10.7 102000 49
2009-12-09 16:24 51°19.361 2°39.012 10.3 344 10.7 101990 47
2009-12-09 16:25 51°19.264 2°39.286 10.2 345 10.7 102000 47
2009-12-09 16:26 51°19.167 2°39.561 10.1 347 10.7 102000 50
2009-12-09 16:27 51°19.071 2°39.837 9.4 346 10.7 102000 49
2009-12-09 16:28 51°18.971 2°40.11 10.7 344 10.7 102000 49
2009-12-09 16:29 51°18.863 2°40.374 11.1 344 10.7 102010 50
2009-12-09 16:30 51°18.756 2°40.644 10.6 346 10.7 102010 47
2009-12-09 16:31 51°18.646 2°40.917 10.2 346 10.7 102010 48
2009-12-09 16:32 51°18.539 2°41.19 10 346 10.6 102020 49
2009-12-09 16:33 51°18.432 2°41.459 10.5 346 10.6 102010 50
2009-12-09 16:34 51°18.329 2°41.731 11 347 10.6 102020 47
2009-12-09 16:35 51°18.225 2°42.001 10.6 343 10.6 102020 48
2009-12-09 16:36 51°18.102 2°42.241 10.6 343 10.6 102020 47
2009-12-09 16:37 51°17.973 2°42.473 11 344 10.6 102010 47
2009-12-09 16:38 51°17.841 2°42.702 11 341 10.6 102020 49
2009-12-09 16:39 51°17.709 2°42.931 9.7 341 10.5 102020 47
2009-12-09 16:40 51°17.578 2°43.167 11.3 342 10.5 102020 46
2009-12-09 16:41 51°17.446 2°43.411 10.6 341 10.5 102020 49
2009-12-09 16:42 51°17.321 2°43.664 10.7 342 10.5 102020 47
2009-12-09 16:43 51°17.205 2°43.926 10.3 345 10.5 102020 48
2009-12-09 16:44 51°17.098 2°44.197 10.4 344 10.5 102030 48
2009-12-09 16:45 51°16.992 2°44.467 9.7 346 10.4 102030 49
2009-12-09 16:46 51°16.892 2°44.742 9.1 343 10.4 102030 47
2009-12-09 16:47 51°16.793 2°45.017 10.8 346 10.4 102030 50
2009-12-09 16:48 51°16.69 2°45.288 10 345 10.4 102020 49
2009-12-09 16:49 51°16.587 2°45.555 9.7 343 10.4 102030 49
2009-12-09 16:50 51°16.48 2°45.82 9.2 342 10.4 102030 48
2009-12-09 16:51 51°16.374 2°46.084 9.5 342 10.4 102020 47
2009-12-09 16:52 51°16.264 2°46.345 10.2 343 10.4 102020 49
2009-12-09 16:53 51°16.158 2°46.615 9.5 343 10.4 102020 47
2009-12-09 16:54 51°16.055 2°46.889 9.1 341 10.3 102020 49
2009-12-09 16:55 51°15.962 2°47.176 9.9 343 10.3 102010 47
2009-12-09 16:56 51°15.873 2°47.471 9.8 342 10.3 102010 48
2009-12-09 16:57 51°15.783 2°47.767 10.3 342 10.3 102020 48
2009-12-09 16:58 51°15.691 2°48.059 9.5 343 10.3 102010 48
2009-12-09 16:59 51°15.609 2°48.356 10.2 343 10.3 102010 46
2009-12-09 17:00 51°15.529 2°48.654 10 344 10.3 102010 48
2009-12-09 17:01 51°15.453 2°48.952 10.4 345 10.3 102010 48
2009-12-09 17:02 51°15.384 2°49.258 10.3 343 10.3 102010 48
2009-12-09 17:03 51°15.319 2°49.569 9.8 344 10.3 102010 47
2009-12-09 17:04 51°15.255 2°49.88 9.2 343 10.2 102010 49
2009-12-09 17:05 51°15.191 2°50.189 10.3 343 10.2 102010 46
2009-12-09 17:06 51°15.126 2°50.497 9.8 343 10.2 102010 49
2009-12-09 17:07 51°15.059 2°50.804 9.6 343 10.2 102010 49
2009-12-09 17:08 51°14.989 2°51.107 10.6 344 10.2 102020 46
2009-12-09 17:09 51°14.917 2°51.408 10.5 345 10.3 102020 47
2009-12-09 17:10 51°14.854 2°51.713 9.8 344 10.3 102020 47
2009-12-09 17:11 51°14.796 2°52.021 10.1 346 10.2 102010 48
2009-12-09 17:12 51°14.746 2°52.32 8.3 348 10.3 102010 49
2009-12-09 17:13 51°14.733 2°52.524 7 352 10.3 102020 45
2009-12-09 17:14 51°14.728 2°52.722 7.5 351 10.3 102010 45
2009-12-09 17:15 51°14.724 2°52.91 6.4 352 10.2 102020 47
2009-12-09 17:16 51°14.72 2°53.067 7.4 349 10.2 102020 45
2009-12-09 17:17 51°14.701 2°53.202 7.5 348 10.2 102020 48
2009-12-09 17:18 51°14.676 2°53.345 8.6 348 10.3 102010 50
2009-12-09 17:19 51°14.644 2°53.493 7.7 347 10.3 102010 48
2009-12-09 17:20 51°14.595 2°53.688 8.2 343 10.3 102010 47
2009-12-09 17:21 51°14.536 2°53.95 10 342 10.3 102010 49
2009-12-09 17:22 51°14.478 2°54.254 9.7 344 10.3 102010 46
2009-12-09 17:23 51°14.441 2°54.578 9.7 346 10.3 102020 46
2009-12-09 17:24 51°14.405 2°54.903 10 344 10.3 102020 49
2009-12-09 17:25 51°14.309 2°55.162 8.2 337 10.3 102030 46
2009-12-09 17:26 51°14.206 2°55.343 7.8 338 10.3 102020 47
2009-12-09 17:27 51°14.128 2°55.417 5 335 10.3 102030 48
2009-12-09 17:28 51°14.067 2°55.462 2.9 335 10.3 102040 50
2009-12-09 17:29 51°14.008 2°55.505 5 333 10.3 102030 47
2009-12-09 17:30 51°13.913 2°55.571 6.5 335 10.3 102030 45
2009-12-09 17:31 51°13.792 2°55.664 7.3 336 10.3 102030 45
2009-12-09 17:32 51°13.727 2°55.766 5.7 343 10.3 102030 50
2009-12-09 17:33 51°13.686 2°55.869 2.8 345 10.3 102030 48
2009-12-09 17:34 51°13.665 2°55.945 4.1 357 10.3 102030 45